sensor_id;sensor_type;location;lat;lon;timestamp;pressure;altitude;pressure_sealevel;temperature;humidity
13050;BME280;6591;51.446;5.404;2022-07-10T00:02:05;102456.06;;;19.48;43.00
13050;BME280;6591;51.446;5.404;2022-07-10T00:04:33;102458.00;;;19.45;43.06
13050;BME280;6591;51.446;5.404;2022-07-10T00:07:01;102460.81;;;19.42;43.14
13050;BME280;6591;51.446;5.404;2022-07-10T00:09:29;102457.44;;;19.39;43.12
13050;BME280;6591;51.446;5.404;2022-07-10T00:11:56;102460.41;;;19.34;43.30
13050;BME280;6591;51.446;5.404;2022-07-10T00:14:23;102452.66;;;19.28;43.04
13050;BME280;6591;51.446;5.404;2022-07-10T00:16:50;102459.94;;;19.26;43.27
13050;BME280;6591;51.446;5.404;2022-07-10T00:19:17;102459.25;;;19.23;43.39
13050;BME280;6591;51.446;5.404;2022-07-10T00:21:44;102458.72;;;19.16;43.39
13050;BME280;6591;51.446;5.404;2022-07-10T00:24:11;102462.53;;;19.12;43.33
13050;BME280;6591;51.446;5.404;2022-07-10T00:26:38;102453.84;;;19.07;43.39
13050;BME280;6591;51.446;5.404;2022-07-10T00:29:05;102450.53;;;19.02;43.38
13050;BME280;6591;51.446;5.404;2022-07-10T00:31:32;102452.59;;;18.97;43.75
13050;BME280;6591;51.446;5.404;2022-07-10T00:34:00;102445.81;;;18.90;43.79
13050;BME280;6591;51.446;5.404;2022-07-10T00:36:26;102453.19;;;18.86;43.98
13050;BME280;6591;51.446;5.404;2022-07-10T00:38:54;102442.84;;;18.79;43.95
13050;BME280;6591;51.446;5.404;2022-07-10T00:41:21;102448.38;;;18.76;43.99
13050;BME280;6591;51.446;5.404;2022-07-10T00:43:59;102453.31;;;18.68;44.34
13050;BME280;6591;51.446;5.404;2022-07-10T00:46:29;102444.53;;;18.64;43.98
13050;BME280;6591;51.446;5.404;2022-07-10T00:48:57;102438.44;;;18.60;44.49
13050;BME280;6591;51.446;5.404;2022-07-10T00:51:27;102448.41;;;18.58;44.32
13050;BME280;6591;51.446;5.404;2022-07-10T00:53:57;102438.81;;;18.53;44.42
13050;BME280;6591;51.446;5.404;2022-07-10T00:56:26;102438.97;;;18.50;44.28
13050;BME280;6591;51.446;5.404;2022-07-10T00:58:54;102433.84;;;18.45;44.39
13050;BME280;6591;51.446;5.404;2022-07-10T01:01:21;102427.75;;;18.42;44.67
13050;BME280;6591;51.446;5.404;2022-07-10T01:03:50;102434.16;;;18.39;44.62
13050;BME280;6591;51.446;5.404;2022-07-10T01:06:17;102436.16;;;18.36;44.64
13050;BME280;6591;51.446;5.404;2022-07-10T01:08:45;102430.03;;;18.32;44.67
13050;BME280;6591;51.446;5.404;2022-07-10T01:11:14;102424.91;;;18.28;45.01
13050;BME280;6591;51.446;5.404;2022-07-10T01:13:43;102422.38;;;18.25;45.08
13050;BME280;6591;51.446;5.404;2022-07-10T01:16:12;102418.75;;;18.26;45.20
13050;BME280;6591;51.446;5.404;2022-07-10T01:18:40;102413.38;;;18.26;45.36
13050;BME280;6591;51.446;5.404;2022-07-10T01:21:29;102421.44;;;18.26;45.72
13050;BME280;6591;51.446;5.404;2022-07-10T01:23:57;102413.84;;;18.34;45.56
13050;BME280;6591;51.446;5.404;2022-07-10T01:26:25;102410.91;;;18.38;45.55
13050;BME280;6591;51.446;5.404;2022-07-10T01:28:54;102406.38;;;18.39;45.59
13050;BME280;6591;51.446;5.404;2022-07-10T01:31:26;102404.31;;;18.44;45.72
13050;BME280;6591;51.446;5.404;2022-07-10T01:33:55;102403.31;;;18.46;45.48
13050;BME280;6591;51.446;5.404;2022-07-10T01:36:23;102391.50;;;18.49;45.34
13050;BME280;6591;51.446;5.404;2022-07-10T01:38:52;102397.81;;;18.48;45.38
13050;BME280;6591;51.446;5.404;2022-07-10T01:41:19;102396.97;;;18.47;45.45
13050;BME280;6591;51.446;5.404;2022-07-10T01:43:46;102397.06;;;18.46;45.21
13050;BME280;6591;51.446;5.404;2022-07-10T01:46:15;102400.75;;;18.43;45.41
13050;BME280;6591;51.446;5.404;2022-07-10T01:48:43;102400.06;;;18.40;45.37
13050;BME280;6591;51.446;5.404;2022-07-10T01:51:12;102402.06;;;18.36;45.21
13050;BME280;6591;51.446;5.404;2022-07-10T01:53:40;102388.94;;;18.30;45.66
13050;BME280;6591;51.446;5.404;2022-07-10T01:56:11;102393.69;;;18.25;45.56
13050;BME280;6591;51.446;5.404;2022-07-10T01:58:40;102401.88;;;18.22;45.80
13050;BME280;6591;51.446;5.404;2022-07-10T02:01:09;102401.25;;;18.17;45.80
13050;BME280;6591;51.446;5.404;2022-07-10T02:03:37;102396.06;;;18.14;45.74
13050;BME280;6591;51.446;5.404;2022-07-10T02:06:24;102392.72;;;18.09;45.82
13050;BME280;6591;51.446;5.404;2022-07-10T02:08:51;102403.50;;;18.09;46.23
13050;BME280;6591;51.446;5.404;2022-07-10T02:11:18;102396.44;;;18.06;46.06
13050;BME280;6591;51.446;5.404;2022-07-10T02:13:45;102400.16;;;18.04;46.13
13050;BME280;6591;51.446;5.404;2022-07-10T02:16:13;102397.56;;;18.02;46.08
13050;BME280;6591;51.446;5.404;2022-07-10T02:18:40;102396.69;;;18.02;46.27
13050;BME280;6591;51.446;5.404;2022-07-10T02:21:09;102403.97;;;18.00;46.29
13050;BME280;6591;51.446;5.404;2022-07-10T02:23:36;102397.84;;;17.96;46.26
13050;BME280;6591;51.446;5.404;2022-07-10T02:26:03;102400.66;;;17.95;46.41
13050;BME280;6591;51.446;5.404;2022-07-10T02:28:30;102401.66;;;17.92;46.29
13050;BME280;6591;51.446;5.404;2022-07-10T02:30:59;102400.00;;;17.90;46.60
13050;BME280;6591;51.446;5.404;2022-07-10T02:33:26;102397.47;;;17.87;46.51
13050;BME280;6591;51.446;5.404;2022-07-10T02:35:53;102393.13;;;17.84;46.37
13050;BME280;6591;51.446;5.404;2022-07-10T02:38:20;102403.00;;;17.84;46.25
13050;BME280;6591;51.446;5.404;2022-07-10T02:40:47;102387.19;;;17.77;46.60
13050;BME280;6591;51.446;5.404;2022-07-10T02:43:14;102390.00;;;17.74;46.73
13050;BME280;6591;51.446;5.404;2022-07-10T02:45:42;102398.19;;;17.73;46.79
13050;BME280;6591;51.446;5.404;2022-07-10T02:48:15;102394.75;;;17.69;46.71
13050;BME280;6591;51.446;5.404;2022-07-10T02:50:42;102396.66;;;17.67;46.71
13050;BME280;6591;51.446;5.404;2022-07-10T02:53:09;102387.97;;;17.62;46.78
13050;BME280;6591;51.446;5.404;2022-07-10T02:55:36;102395.16;;;17.62;47.10
13050;BME280;6591;51.446;5.404;2022-07-10T02:58:03;102393.47;;;17.59;46.84
13050;BME280;6591;51.446;5.404;2022-07-10T03:00:31;102387.28;;;17.57;47.09
13050;BME280;6591;51.446;5.404;2022-07-10T03:03:01;102390.97;;;17.55;47.36
13050;BME280;6591;51.446;5.404;2022-07-10T03:05:29;102392.66;;;17.57;47.29
13050;BME280;6591;51.446;5.404;2022-07-10T03:07:56;102391.72;;;17.58;47.69
13050;BME280;6591;51.446;5.404;2022-07-10T03:10:23;102396.03;;;17.62;47.72
13050;BME280;6591;51.446;5.404;2022-07-10T03:12:50;102392.22;;;17.66;47.87
13050;BME280;6591;51.446;5.404;2022-07-10T03:15:17;102385.75;;;17.70;47.77
13050;BME280;6591;51.446;5.404;2022-07-10T03:17:44;102386.47;;;17.74;48.01
13050;BME280;6591;51.446;5.404;2022-07-10T03:20:11;102379.13;;;17.77;47.73
13050;BME280;6591;51.446;5.404;2022-07-10T03:22:39;102378.97;;;17.81;47.90
13050;BME280;6591;51.446;5.404;2022-07-10T03:25:06;102383.31;;;17.83;47.76
13050;BME280;6591;51.446;5.404;2022-07-10T03:27:33;102383.97;;;17.88;47.62
13050;BME280;6591;51.446;5.404;2022-07-10T03:30:00;102375.91;;;17.88;47.78
13050;BME280;6591;51.446;5.404;2022-07-10T03:32:29;102376.53;;;17.93;47.76
13050;BME280;6591;51.446;5.404;2022-07-10T03:34:56;102388.91;;;17.96;47.73
13050;BME280;6591;51.446;5.404;2022-07-10T03:37:24;102374.72;;;17.94;47.64
13050;BME280;6591;51.446;5.404;2022-07-10T03:39:51;102376.47;;;17.95;47.56
13050;BME280;6591;51.446;5.404;2022-07-10T03:42:18;102367.59;;;17.93;47.28
13050;BME280;6591;51.446;5.404;2022-07-10T03:44:46;102367.66;;;17.91;47.49
13050;BME280;6591;51.446;5.404;2022-07-10T03:47:13;102366.03;;;17.89;47.69
13050;BME280;6591;51.446;5.404;2022-07-10T03:49:40;102369.56;;;17.89;47.75
13050;BME280;6591;51.446;5.404;2022-07-10T03:52:08;102360.00;;;17.84;47.57
13050;BME280;6591;51.446;5.404;2022-07-10T03:54:35;102367.97;;;17.85;47.68
13050;BME280;6591;51.446;5.404;2022-07-10T03:57:03;102357.38;;;17.82;47.75
13050;BME280;6591;51.446;5.404;2022-07-10T03:59:49;102362.84;;;17.81;47.73
13050;BME280;6591;51.446;5.404;2022-07-10T04:02:16;102360.31;;;17.77;47.68
13050;BME280;6591;51.446;5.404;2022-07-10T04:04:43;102365.75;;;17.76;47.93
13050;BME280;6591;51.446;5.404;2022-07-10T04:07:10;102363.94;;;17.76;48.32
13050;BME280;6591;51.446;5.404;2022-07-10T04:09:39;102362.06;;;17.78;47.70
13050;BME280;6591;51.446;5.404;2022-07-10T04:12:07;102363.78;;;17.79;47.99
13050;BME280;6591;51.446;5.404;2022-07-10T04:14:34;102358.25;;;17.83;48.49
13050;BME280;6591;51.446;5.404;2022-07-10T04:17:01;102364.19;;;17.89;48.49
13050;BME280;6591;51.446;5.404;2022-07-10T04:19:28;102372.03;;;17.94;48.70
13050;BME280;6591;51.446;5.404;2022-07-10T04:21:55;102362.66;;;18.01;48.91
13050;BME280;6591;51.446;5.404;2022-07-10T04:24:22;102373.91;;;18.09;49.15
13050;BME280;6591;51.446;5.404;2022-07-10T04:26:49;102373.44;;;18.18;48.84
13050;BME280;6591;51.446;5.404;2022-07-10T04:29:16;102378.31;;;18.27;48.95
13050;BME280;6591;51.446;5.404;2022-07-10T04:31:43;102382.44;;;18.34;48.94
13050;BME280;6591;51.446;5.404;2022-07-10T04:34:10;102372.91;;;18.44;48.83
13050;BME280;6591;51.446;5.404;2022-07-10T04:36:37;102351.06;;;18.50;48.42
13050;BME280;6591;51.446;5.404;2022-07-10T04:39:04;102361.28;;;18.61;48.77
13050;BME280;6591;51.446;5.404;2022-07-10T04:41:31;102360.84;;;18.69;48.82
13050;BME280;6591;51.446;5.404;2022-07-10T04:43:58;102361.31;;;18.77;48.84
13050;BME280;6591;51.446;5.404;2022-07-10T04:46:25;102358.28;;;18.83;48.81
13050;BME280;6591;51.446;5.404;2022-07-10T04:48:53;102359.66;;;18.90;49.02
13050;BME280;6591;51.446;5.404;2022-07-10T04:51:20;102369.94;;;18.99;48.66
13050;BME280;6591;51.446;5.404;2022-07-10T04:53:47;102359.66;;;19.05;48.75
13050;BME280;6591;51.446;5.404;2022-07-10T04:56:14;102360.19;;;19.12;48.65
13050;BME280;6591;51.446;5.404;2022-07-10T04:58:41;102356.22;;;19.19;48.72
13050;BME280;6591;51.446;5.404;2022-07-10T05:01:16;102360.19;;;19.28;48.86
13050;BME280;6591;51.446;5.404;2022-07-10T05:03:43;102374.19;;;19.34;48.43
13050;BME280;6591;51.446;5.404;2022-07-10T05:06:10;102376.44;;;19.42;48.61
13050;BME280;6591;51.446;5.404;2022-07-10T05:08:36;102377.78;;;19.51;48.88
13050;BME280;6591;51.446;5.404;2022-07-10T05:11:04;102379.06;;;19.59;48.57
13050;BME280;6591;51.446;5.404;2022-07-10T05:13:31;102368.72;;;19.67;48.81
13050;BME280;6591;51.446;5.404;2022-07-10T05:15:58;102354.59;;;19.78;48.46
13050;BME280;6591;51.446;5.404;2022-07-10T05:18:25;102361.06;;;19.89;48.69
13050;BME280;6591;51.446;5.404;2022-07-10T05:20:53;102372.06;;;20.01;48.43
13050;BME280;6591;51.446;5.404;2022-07-10T05:23:20;102373.25;;;20.11;48.43
13050;BME280;6591;51.446;5.404;2022-07-10T05:25:48;102367.31;;;20.20;48.39
13050;BME280;6591;51.446;5.404;2022-07-10T05:28:15;102364.91;;;20.29;48.42
13050;BME280;6591;51.446;5.404;2022-07-10T05:30:42;102368.69;;;20.41;48.13
13050;BME280;6591;51.446;5.404;2022-07-10T05:33:09;102374.59;;;20.48;47.93
13050;BME280;6591;51.446;5.404;2022-07-10T05:35:37;102376.25;;;20.50;47.88
13050;BME280;6591;51.446;5.404;2022-07-10T05:38:04;102374.22;;;20.54;47.71
13050;BME280;6591;51.446;5.404;2022-07-10T05:40:31;102372.31;;;20.56;47.67
13050;BME280;6591;51.446;5.404;2022-07-10T05:42:59;102376.53;;;20.60;47.97
13050;BME280;6591;51.446;5.404;2022-07-10T05:45:26;102372.50;;;20.67;47.71
13050;BME280;6591;51.446;5.404;2022-07-10T05:47:53;102372.88;;;20.75;47.72
13050;BME280;6591;51.446;5.404;2022-07-10T05:50:21;102380.38;;;20.84;47.62
13050;BME280;6591;51.446;5.404;2022-07-10T05:52:48;102374.28;;;20.95;48.02
13050;BME280;6591;51.446;5.404;2022-07-10T05:55:15;102379.00;;;21.05;47.62
13050;BME280;6591;51.446;5.404;2022-07-10T05:57:42;102367.63;;;21.14;47.69
13050;BME280;6591;51.446;5.404;2022-07-10T06:00:10;102365.78;;;21.29;47.66
13050;BME280;6591;51.446;5.404;2022-07-10T06:02:40;102366.59;;;21.44;47.55
13050;BME280;6591;51.446;5.404;2022-07-10T06:05:07;102371.94;;;21.58;47.11
13050;BME280;6591;51.446;5.404;2022-07-10T06:07:34;102370.81;;;21.75;47.17
13050;BME280;6591;51.446;5.404;2022-07-10T06:10:04;102373.34;;;21.90;46.90
13050;BME280;6591;51.446;5.404;2022-07-10T06:12:35;102378.38;;;22.09;46.93
13050;BME280;6591;51.446;5.404;2022-07-10T06:15:04;102366.47;;;22.24;46.62
13050;BME280;6591;51.446;5.404;2022-07-10T06:17:33;102375.06;;;22.44;46.86
13050;BME280;6591;51.446;5.404;2022-07-10T06:20:00;102368.44;;;22.60;46.55
13050;BME280;6591;51.446;5.404;2022-07-10T06:22:28;102360.84;;;22.78;46.69
13050;BME280;6591;51.446;5.404;2022-07-10T06:25:09;102363.31;;;22.94;46.48
13050;BME280;6591;51.446;5.404;2022-07-10T06:27:36;102365.44;;;23.14;45.96
13050;BME280;6591;51.446;5.404;2022-07-10T06:30:04;102369.84;;;23.28;45.71
13050;BME280;6591;51.446;5.404;2022-07-10T06:32:31;102364.34;;;23.40;45.71
13050;BME280;6591;51.446;5.404;2022-07-10T06:35:01;102369.78;;;23.53;45.19
13050;BME280;6591;51.446;5.404;2022-07-10T06:37:31;102364.28;;;23.66;44.63
13050;BME280;6591;51.446;5.404;2022-07-10T06:40:00;102367.91;;;23.77;45.04
13050;BME280;6591;51.446;5.404;2022-07-10T06:42:27;102367.84;;;23.90;44.58
13050;BME280;6591;51.446;5.404;2022-07-10T06:44:58;102366.03;;;24.01;44.21
13050;BME280;6591;51.446;5.404;2022-07-10T06:47:25;102359.63;;;24.14;43.97
13050;BME280;6591;51.446;5.404;2022-07-10T06:50:11;102351.03;;;24.20;43.73
13050;BME280;6591;51.446;5.404;2022-07-10T06:52:38;102359.31;;;24.29;43.61
13050;BME280;6591;51.446;5.404;2022-07-10T06:55:05;102356.00;;;24.37;43.30
13050;BME280;6591;51.446;5.404;2022-07-10T06:57:38;102353.78;;;24.42;43.19
13050;BME280;6591;51.446;5.404;2022-07-10T07:00:07;102356.75;;;24.50;42.99
13050;BME280;6591;51.446;5.404;2022-07-10T07:02:37;102358.25;;;24.54;42.82
13050;BME280;6591;51.446;5.404;2022-07-10T07:05:06;102356.75;;;24.61;42.92
13050;BME280;6591;51.446;5.404;2022-07-10T07:07:34;102359.75;;;24.69;42.50
13050;BME280;6591;51.446;5.404;2022-07-10T07:10:03;102358.38;;;24.75;42.40
13050;BME280;6591;51.446;5.404;2022-07-10T07:12:30;102351.44;;;24.82;42.80
13050;BME280;6591;51.446;5.404;2022-07-10T07:14:57;102364.34;;;24.91;42.34
13050;BME280;6591;51.446;5.404;2022-07-10T07:17:24;102359.13;;;24.99;42.22
13050;BME280;6591;51.446;5.404;2022-07-10T07:20:01;102353.88;;;25.18;42.24
13050;BME280;6591;51.446;5.404;2022-07-10T07:22:48;102362.59;;;25.44;42.91
13050;BME280;6591;51.446;5.404;2022-07-10T07:25:33;102362.16;;;25.71;42.72
13050;BME280;6591;51.446;5.404;2022-07-10T07:28:00;102369.38;;;25.93;42.00
13050;BME280;6591;51.446;5.404;2022-07-10T07:30:28;102362.94;;;26.14;41.55
13050;BME280;6591;51.446;5.404;2022-07-10T07:32:56;102364.56;;;26.38;41.63
13050;BME280;6591;51.446;5.404;2022-07-10T07:35:23;102369.97;;;26.59;41.44
13050;BME280;6591;51.446;5.404;2022-07-10T07:37:51;102359.56;;;26.73;41.06
13050;BME280;6591;51.446;5.404;2022-07-10T07:40:21;102364.31;;;26.81;40.73
13050;BME280;6591;51.446;5.404;2022-07-10T07:42:53;102363.19;;;26.83;40.45
13050;BME280;6591;51.446;5.404;2022-07-10T07:45:22;102370.38;;;26.84;39.94
13050;BME280;6591;51.446;5.404;2022-07-10T07:47:55;102368.03;;;26.80;40.05
13050;BME280;6591;51.446;5.404;2022-07-10T07:50:34;102363.88;;;26.76;40.08
13050;BME280;6591;51.446;5.404;2022-07-10T07:53:03;102374.94;;;26.74;39.76
13050;BME280;6591;51.446;5.404;2022-07-10T07:55:33;102369.16;;;26.68;39.04
13050;BME280;6591;51.446;5.404;2022-07-10T07:58:02;102370.56;;;26.62;39.36
13050;BME280;6591;51.446;5.404;2022-07-10T08:00:30;102372.56;;;26.60;39.41
13050;BME280;6591;51.446;5.404;2022-07-10T08:03:01;102371.84;;;26.58;39.26
13050;BME280;6591;51.446;5.404;2022-07-10T08:05:30;102371.09;;;26.56;39.65
13050;BME280;6591;51.446;5.404;2022-07-10T08:07:59;102369.97;;;26.59;39.30
13050;BME280;6591;51.446;5.404;2022-07-10T08:10:34;102371.28;;;26.64;39.57
13050;BME280;6591;51.446;5.404;2022-07-10T08:13:08;102371.88;;;26.68;39.10
13050;BME280;6591;51.446;5.404;2022-07-10T08:15:35;102361.09;;;26.66;39.18
13050;BME280;6591;51.446;5.404;2022-07-10T08:18:02;102362.84;;;26.67;39.03
13050;BME280;6591;51.446;5.404;2022-07-10T08:20:31;102360.00;;;26.69;39.39
13050;BME280;6591;51.446;5.404;2022-07-10T08:23:01;102362.56;;;26.70;39.08
13050;BME280;6591;51.446;5.404;2022-07-10T08:25:28;102359.28;;;26.76;39.06
13050;BME280;6591;51.446;5.404;2022-07-10T08:28:04;102347.38;;;26.77;39.14
13050;BME280;6591;51.446;5.404;2022-07-10T08:30:33;102357.88;;;26.82;39.29
13050;BME280;6591;51.446;5.404;2022-07-10T08:33:04;102359.78;;;26.91;39.32
13050;BME280;6591;51.446;5.404;2022-07-10T08:35:36;102359.66;;;26.92;38.92
13050;BME280;6591;51.446;5.404;2022-07-10T08:38:03;102349.34;;;26.96;38.59
13050;BME280;6591;51.446;5.404;2022-07-10T08:40:38;102356.84;;;27.04;39.12
13050;BME280;6591;51.446;5.404;2022-07-10T08:43:11;102357.84;;;27.12;38.98
13050;BME280;6591;51.446;5.404;2022-07-10T08:45:41;102365.91;;;27.14;38.68
13050;BME280;6591;51.446;5.404;2022-07-10T08:48:12;102358.72;;;27.13;38.63
13050;BME280;6591;51.446;5.404;2022-07-10T08:50:45;102365.91;;;27.14;38.30
13050;BME280;6591;51.446;5.404;2022-07-10T08:53:25;102366.19;;;27.11;38.34
13050;BME280;6591;51.446;5.404;2022-07-10T08:55:55;102362.44;;;27.12;38.84
13050;BME280;6591;51.446;5.404;2022-07-10T08:58:23;102358.72;;;27.13;38.83
13050;BME280;6591;51.446;5.404;2022-07-10T09:00:50;102361.19;;;27.16;38.77
13050;BME280;6591;51.446;5.404;2022-07-10T09:03:17;102360.88;;;27.19;38.46
13050;BME280;6591;51.446;5.404;2022-07-10T09:05:44;102370.25;;;27.26;38.18
13050;BME280;6591;51.446;5.404;2022-07-10T09:08:23;102360.59;;;27.22;37.91
13050;BME280;6591;51.446;5.404;2022-07-10T09:10:51;102372.81;;;27.27;38.28
13050;BME280;6591;51.446;5.404;2022-07-10T09:13:19;102364.78;;;27.26;37.96
13050;BME280;6591;51.446;5.404;2022-07-10T09:15:49;102350.72;;;27.21;38.27
13050;BME280;6591;51.446;5.404;2022-07-10T09:18:21;102366.78;;;27.24;38.32
13050;BME280;6591;51.446;5.404;2022-07-10T09:20:50;102351.28;;;27.24;38.34
13050;BME280;6591;51.446;5.404;2022-07-10T09:23:19;102356.19;;;27.30;38.01
13050;BME280;6591;51.446;5.404;2022-07-10T09:25:49;102352.47;;;27.31;38.35
13050;BME280;6591;51.446;5.404;2022-07-10T09:28:19;102353.88;;;27.26;37.81
13050;BME280;6591;51.446;5.404;2022-07-10T09:30:47;102346.50;;;27.17;37.71
13050;BME280;6591;51.446;5.404;2022-07-10T09:36:10;102340.75;;;27.01;37.85
13050;BME280;6591;51.446;5.404;2022-07-10T09:41:25;102325.09;;;27.03;38.18
13050;BME280;6591;51.446;5.404;2022-07-10T09:44:05;102334.03;;;27.14;38.37
13050;BME280;6591;51.446;5.404;2022-07-10T09:46:38;102325.44;;;27.28;38.22
13050;BME280;6591;51.446;5.404;2022-07-10T09:49:11;102332.63;;;27.39;37.54
13050;BME280;6591;51.446;5.404;2022-07-10T09:51:44;102336.97;;;27.42;37.33
13050;BME280;6591;51.446;5.404;2022-07-10T09:54:16;102342.13;;;27.45;37.27
13050;BME280;6591;51.446;5.404;2022-07-10T09:56:49;102329.47;;;27.44;37.88
13050;BME280;6591;51.446;5.404;2022-07-10T09:59:21;102327.47;;;27.46;37.69
13050;BME280;6591;51.446;5.404;2022-07-10T10:01:50;102325.59;;;27.46;37.70
13050;BME280;6591;51.446;5.404;2022-07-10T10:04:22;102328.19;;;27.48;36.99
13050;BME280;6591;51.446;5.404;2022-07-10T10:06:57;102321.28;;;27.44;37.15
13050;BME280;6591;51.446;5.404;2022-07-10T10:09:41;102329.19;;;27.37;37.81
13050;BME280;6591;51.446;5.404;2022-07-10T10:12:31;102326.91;;;27.42;37.39
13050;BME280;6591;51.446;5.404;2022-07-10T10:15:05;102331.66;;;27.59;38.09
13050;BME280;6591;51.446;5.404;2022-07-10T10:17:41;102323.06;;;27.73;37.75
13050;BME280;6591;51.446;5.404;2022-07-10T10:20:10;102328.78;;;27.90;37.57
13050;BME280;6591;51.446;5.404;2022-07-10T10:22:58;102327.03;;;27.98;37.21
13050;BME280;6591;51.446;5.404;2022-07-10T10:25:32;102330.66;;;27.99;36.76
13050;BME280;6591;51.446;5.404;2022-07-10T10:28:04;102332.38;;;28.00;36.92
13050;BME280;6591;51.446;5.404;2022-07-10T10:30:43;102326.91;;;28.00;36.92
13050;BME280;6591;51.446;5.404;2022-07-10T10:36:11;102321.88;;;28.14;36.93
13050;BME280;6591;51.446;5.404;2022-07-10T10:41:25;102326.97;;;28.46;36.76
13050;BME280;6591;51.446;5.404;2022-07-10T10:49:18;102321.03;;;28.88;36.61
13050;BME280;6591;51.446;5.404;2022-07-10T10:52:09;102310.44;;;29.02;36.38
13050;BME280;6591;51.446;5.404;2022-07-10T10:57:35;102305.22;;;29.27;35.59
13050;BME280;6591;51.446;5.404;2022-07-10T11:00:05;102312.75;;;29.42;35.25
13050;BME280;6591;51.446;5.404;2022-07-10T11:02:38;102301.72;;;29.52;34.88
13050;BME280;6591;51.446;5.404;2022-07-10T11:08:02;102310.78;;;29.88;35.35
13050;BME280;6591;51.446;5.404;2022-07-10T11:10:55;102302.97;;;29.93;34.68
13050;BME280;6591;51.446;5.404;2022-07-10T11:13:30;102294.94;;;30.00;34.67
13050;BME280;6591;51.446;5.404;2022-07-10T11:16:12;102296.38;;;30.04;34.43
13050;BME280;6591;51.446;5.404;2022-07-10T11:18:40;102308.41;;;30.11;33.96
13050;BME280;6591;51.446;5.404;2022-07-10T11:21:22;102297.25;;;30.04;33.89
13050;BME280;6591;51.446;5.404;2022-07-10T11:24:40;102297.88;;;29.98;34.21
13050;BME280;6591;51.446;5.404;2022-07-10T11:27:53;102284.66;;;29.94;34.27
13050;BME280;6591;51.446;5.404;2022-07-10T11:30:22;102281.63;;;30.05;34.05
13050;BME280;6591;51.446;5.404;2022-07-10T11:32:49;102287.66;;;30.08;33.82
13050;BME280;6591;51.446;5.404;2022-07-10T11:35:18;102286.16;;;30.14;33.83
13050;BME280;6591;51.446;5.404;2022-07-10T11:37:53;102283.22;;;30.15;33.82
13050;BME280;6591;51.446;5.404;2022-07-10T11:40:21;102279.47;;;30.16;33.72
13050;BME280;6591;51.446;5.404;2022-07-10T11:42:53;102283.94;;;30.17;33.56
13050;BME280;6591;51.446;5.404;2022-07-10T11:45:34;102282.22;;;30.16;33.47
13050;BME280;6591;51.446;5.404;2022-07-10T11:48:04;102286.03;;;30.23;33.62
13050;BME280;6591;51.446;5.404;2022-07-10T11:50:38;102282.59;;;30.21;33.27
13050;BME280;6591;51.446;5.404;2022-07-10T11:53:05;102267.34;;;30.19;33.44
13050;BME280;6591;51.446;5.404;2022-07-10T11:55:34;102276.44;;;30.19;32.92
13050;BME280;6591;51.446;5.404;2022-07-10T11:58:14;102280.19;;;30.18;33.12
13050;BME280;6591;51.446;5.404;2022-07-10T12:00:42;102265.84;;;30.24;33.63
13050;BME280;6591;51.446;5.404;2022-07-10T12:03:20;102250.06;;;30.26;33.10
13050;BME280;6591;51.446;5.404;2022-07-10T12:05:55;102262.13;;;30.42;33.59
13050;BME280;6591;51.446;5.404;2022-07-10T12:08:23;102256.22;;;30.54;33.34
13050;BME280;6591;51.446;5.404;2022-07-10T12:10:51;102264.69;;;30.69;33.42
13050;BME280;6591;51.446;5.404;2022-07-10T12:13:18;102271.59;;;30.81;33.10
13050;BME280;6591;51.446;5.404;2022-07-10T12:15:46;102261.13;;;30.85;33.26
13050;BME280;6591;51.446;5.404;2022-07-10T12:18:20;102271.28;;;30.92;33.12
13050;BME280;6591;51.446;5.404;2022-07-10T12:20:49;102263.91;;;31.01;32.62
13050;BME280;6591;51.446;5.404;2022-07-10T12:23:20;102266.19;;;31.05;32.79
13050;BME280;6591;51.446;5.404;2022-07-10T12:25:50;102270.31;;;31.09;32.29
13050;BME280;6591;51.446;5.404;2022-07-10T12:28:17;102264.81;;;31.09;32.53
13050;BME280;6591;51.446;5.404;2022-07-10T12:30:47;102267.41;;;31.03;32.37
13050;BME280;6591;51.446;5.404;2022-07-10T12:33:22;102273.53;;;30.97;32.38
13050;BME280;6591;51.446;5.404;2022-07-10T12:35:57;102273.16;;;30.92;32.47
13050;BME280;6591;51.446;5.404;2022-07-10T12:38:30;102274.69;;;30.86;32.41
13050;BME280;6591;51.446;5.404;2022-07-10T12:41:11;102270.38;;;30.84;32.57
13050;BME280;6591;51.446;5.404;2022-07-10T12:43:40;102270.06;;;30.87;32.50
13050;BME280;6591;51.446;5.404;2022-07-10T12:46:23;102277.09;;;30.81;32.19
13050;BME280;6591;51.446;5.404;2022-07-10T12:49:10;102273.63;;;30.79;32.57
13050;BME280;6591;51.446;5.404;2022-07-10T12:51:45;102272.31;;;30.91;32.39
13050;BME280;6591;51.446;5.404;2022-07-10T12:54:36;102267.22;;;31.04;32.64
13050;BME280;6591;51.446;5.404;2022-07-10T12:57:05;102269.31;;;31.19;32.75
13050;BME280;6591;51.446;5.404;2022-07-10T12:59:35;102258.00;;;31.30;32.49
13050;BME280;6591;51.446;5.404;2022-07-10T13:02:17;102254.41;;;31.45;32.32
13050;BME280;6591;51.446;5.404;2022-07-10T13:04:58;102254.94;;;31.65;31.56
13050;BME280;6591;51.446;5.404;2022-07-10T13:07:33;102256.63;;;31.82;32.02
13050;BME280;6591;51.446;5.404;2022-07-10T13:10:05;102248.34;;;31.98;31.25
13050;BME280;6591;51.446;5.404;2022-07-10T13:12:35;102260.22;;;32.15;31.41
13050;BME280;6591;51.446;5.404;2022-07-10T13:15:05;102241.81;;;32.24;30.81
13050;BME280;6591;51.446;5.404;2022-07-10T13:17:34;102241.22;;;32.36;31.28
13050;BME280;6591;51.446;5.404;2022-07-10T13:20:10;102237.91;;;32.49;31.38
13050;BME280;6591;51.446;5.404;2022-07-10T13:22:37;102249.03;;;32.64;30.99
13050;BME280;6591;51.446;5.404;2022-07-10T13:25:04;102240.94;;;32.70;29.97
13050;BME280;6591;51.446;5.404;2022-07-10T13:27:34;102223.75;;;32.68;30.06
13050;BME280;6591;51.446;5.404;2022-07-10T13:30:06;102231.59;;;32.79;30.13
13050;BME280;6591;51.446;5.404;2022-07-10T13:32:34;102228.19;;;33.00;30.82
13050;BME280;6591;51.446;5.404;2022-07-10T13:35:01;102232.50;;;33.26;30.66
13050;BME280;6591;51.446;5.404;2022-07-10T13:37:30;102231.06;;;33.52;30.07
13050;BME280;6591;51.446;5.404;2022-07-10T13:39:57;102232.28;;;33.73;29.75